createdAt,value
2023-05-16T00:00:47.386Z,0.52
2023-05-16T00:03:47.431Z,0.65
2023-05-16T00:06:47.358Z,0.77
2023-05-16T00:09:47.429Z,0.71
2023-05-16T00:12:47.394Z,0.91
2023-05-16T00:15:47.430Z,0.46
2023-05-16T00:18:47.514Z,0.57
2023-05-16T00:21:47.448Z,0.51
2023-05-16T00:24:47.372Z,0.62
2023-05-16T00:27:47.402Z,0.46
2023-05-16T00:30:47.368Z,0.55
2023-05-16T00:33:47.487Z,0.59
2023-05-16T00:36:47.436Z,0.5
2023-05-16T00:39:47.413Z,0.67
2023-05-16T00:42:47.434Z,0.76
2023-05-16T00:45:47.448Z,0.68
2023-05-16T00:48:47.441Z,0.62
2023-05-16T00:51:47.514Z,0.66
2023-05-16T00:54:47.459Z,0.44
2023-05-16T00:57:47.454Z,0.49
2023-05-16T01:00:48.660Z,0.41
2023-05-16T01:03:47.623Z,0.59
2023-05-16T01:06:47.507Z,0.47
2023-05-16T01:09:47.484Z,0.37
2023-05-16T01:12:47.421Z,0.32
2023-05-16T01:15:47.487Z,0.33
2023-05-16T01:18:47.537Z,0.05
2023-05-16T01:21:47.504Z,0.1
2023-05-16T01:24:47.454Z,0.17
2023-05-16T01:27:47.440Z,0.09
2023-05-16T01:30:47.505Z,0.01
2023-05-16T01:33:47.500Z,0.06
2023-05-16T01:36:47.481Z,0.03
2023-05-16T01:39:47.540Z,0.22
2023-05-16T01:42:47.441Z,0.32
2023-05-16T01:45:47.475Z,0.14
2023-05-16T01:48:47.461Z,0.07
2023-05-16T01:51:47.586Z,0
2023-05-16T01:54:47.598Z,0.05
2023-05-16T01:57:47.521Z,0.34
2023-05-16T02:00:47.502Z,0.11
2023-05-16T02:03:47.484Z,0.05
2023-05-16T02:06:47.535Z,0.29
2023-05-16T02:09:47.493Z,0.23
2023-05-16T02:12:47.557Z,0.22
2023-05-16T02:15:47.469Z,0.11
2023-05-16T02:18:47.630Z,0.09
2023-05-16T02:21:47.498Z,0.06
2023-05-16T02:24:47.591Z,0.1
2023-05-16T02:27:47.561Z,0.13
2023-05-16T02:30:47.525Z,0.14
2023-05-16T02:33:47.538Z,0.03
2023-05-16T02:36:47.545Z,0.12
2023-05-16T02:39:47.510Z,0.41
2023-05-16T02:42:47.577Z,0.37
2023-05-16T02:45:47.537Z,0.29
2023-05-16T02:48:47.662Z,0.42
2023-05-16T02:51:47.529Z,0.39
2023-05-16T02:54:56.046Z,0.44
2023-05-16T02:57:47.539Z,0.03
2023-05-16T03:00:47.592Z,0.34
2023-05-16T03:03:47.634Z,0.21
2023-05-16T03:06:47.617Z,0.17
2023-05-16T03:09:47.518Z,0.13
2023-05-16T03:12:47.618Z,0.34
2023-05-16T03:15:47.667Z,0.73
2023-05-16T03:18:47.576Z,0.27
2023-05-16T03:21:47.552Z,0.28
2023-05-16T03:24:47.567Z,0.37
2023-05-16T03:27:47.545Z,0.09
2023-05-16T03:30:47.570Z,0.16
2023-05-16T03:33:47.557Z,0.28
2023-05-16T03:36:47.630Z,0.15
2023-05-16T03:39:47.590Z,0.33
2023-05-16T03:42:47.618Z,0.38
2023-05-16T03:45:47.617Z,0.46
2023-05-16T03:48:47.593Z,0.54
2023-05-16T03:51:47.637Z,0.44
2023-05-16T03:54:47.634Z,0.29
2023-05-16T03:57:47.616Z,0.35
2023-05-16T04:00:47.640Z,0.07
2023-05-16T04:03:47.645Z,0.43
2023-05-16T04:06:47.574Z,0.22
2023-05-16T04:09:47.596Z,0.17
2023-05-16T04:12:47.659Z,0.1
2023-05-16T04:15:47.658Z,0.2
2023-05-16T04:18:47.918Z,0.07
2023-05-16T04:21:47.649Z,0.03
2023-05-16T04:24:47.677Z,0
2023-05-16T04:27:47.591Z,0
2023-05-16T04:30:47.662Z,0.25
2023-05-16T04:33:47.677Z,0.09
2023-05-16T04:36:47.631Z,0.31
2023-05-16T04:39:47.629Z,0.14
2023-05-16T04:42:47.614Z,0.28
2023-05-16T04:45:47.652Z,0.35
2023-05-16T04:48:47.627Z,0.32
2023-05-16T04:51:47.608Z,0.64
2023-05-16T04:54:47.653Z,0.56
2023-05-16T04:57:47.653Z,0.63
2023-05-16T05:00:47.660Z,0.51
2023-05-16T05:03:48.362Z,0.71
2023-05-16T05:06:47.652Z,0.65
2023-05-16T05:09:47.729Z,0.96
2023-05-16T05:12:54.566Z,0.67
2023-05-16T05:15:47.721Z,0.61
2023-05-16T05:18:47.755Z,0.61
2023-05-16T05:21:47.652Z,1.06
2023-05-16T05:24:47.632Z,0.87
2023-05-16T05:27:47.785Z,0.77
2023-05-16T05:30:47.724Z,0.79
2023-05-16T05:33:47.701Z,0.76
2023-05-16T05:36:47.677Z,0.92
2023-05-16T05:39:47.677Z,0.83
2023-05-16T05:42:47.764Z,1.02
2023-05-16T05:45:47.708Z,1.14
2023-05-16T05:48:47.764Z,0.97
2023-05-16T05:51:47.670Z,0.85
2023-05-16T05:54:47.686Z,0.97
2023-05-16T05:57:47.753Z,0.94
2023-05-16T06:00:47.750Z,0.88
2023-05-16T06:03:47.696Z,0.65
2023-05-16T06:06:47.753Z,0.86
2023-05-16T06:09:47.786Z,0.98
2023-05-16T06:12:47.691Z,1.14
2023-05-16T06:15:47.698Z,1.04
2023-05-16T06:18:47.797Z,1.02
2023-05-16T06:21:47.758Z,0.84
2023-05-16T06:24:47.677Z,1.4
2023-05-16T06:27:47.771Z,0.84
2023-05-16T06:30:47.783Z,1.17
2023-05-16T06:33:47.760Z,1.13
2023-05-16T06:36:47.784Z,1.24
2023-05-16T06:39:47.712Z,1.67
2023-05-16T06:42:47.765Z,1.27
2023-05-16T06:45:47.793Z,1.5
2023-05-16T06:48:47.800Z,1.41
2023-05-16T06:51:47.774Z,1.06
2023-05-16T06:54:47.785Z,1.09
2023-05-16T06:57:47.781Z,1.03
2023-05-16T07:00:47.833Z,1.08
2023-05-16T07:03:47.873Z,0.94
2023-05-16T07:06:47.786Z,0.94
2023-05-16T07:09:47.826Z,1.24
2023-05-16T07:12:47.849Z,1.47
2023-05-16T07:15:47.813Z,1.4
2023-05-16T07:18:47.879Z,1.16
2023-05-16T07:21:47.828Z,1.41
2023-05-16T07:24:47.833Z,1.18
2023-05-16T07:27:47.841Z,1.47
2023-05-16T07:30:47.892Z,1.11
2023-05-16T07:33:47.846Z,1.21
2023-05-16T07:36:47.784Z,1.27
2023-05-16T07:39:48.046Z,1.25
2023-05-16T07:42:47.825Z,1.11
2023-05-16T07:45:47.876Z,1.04
2023-05-16T07:48:47.873Z,1.23
2023-05-16T07:51:47.860Z,1.36
2023-05-16T07:54:57.386Z,0.88
2023-05-16T07:57:47.850Z,0.96
2023-05-16T08:00:47.921Z,1.02
2023-05-16T08:03:47.897Z,1.17
2023-05-16T08:06:47.872Z,1.27
2023-05-16T08:09:47.814Z,1.33
2023-05-16T08:12:47.886Z,1.34
2023-05-16T08:15:47.889Z,1.02
2023-05-16T08:18:47.891Z,1.66
2023-05-16T08:21:47.841Z,1.4
2023-05-16T08:24:47.892Z,1.41
2023-05-16T08:27:47.921Z,1.32
2023-05-16T08:30:48.177Z,1.59
2023-05-16T08:33:47.863Z,1.49
2023-05-16T08:36:47.926Z,1.28
2023-05-16T08:39:47.902Z,1.02
2023-05-16T08:42:47.896Z,2.06
2023-05-16T08:45:47.971Z,1.92
2023-05-16T08:48:47.881Z,1.57
2023-05-16T08:51:47.861Z,1.86
2023-05-16T08:54:52.728Z,1.97
2023-05-16T08:57:47.965Z,1.73
2023-05-16T09:00:48.011Z,2.08
2023-05-16T09:03:47.936Z,2.25
2023-05-16T09:06:47.965Z,2.21
2023-05-16T09:09:47.925Z,2.04
2023-05-16T09:12:47.991Z,2.2
2023-05-16T09:15:47.979Z,2.54
2023-05-16T09:18:47.994Z,1.94
2023-05-16T09:21:47.934Z,1.49
2023-05-16T09:24:47.913Z,1.64
2023-05-16T09:27:47.895Z,2.17
2023-05-16T09:30:47.931Z,2.64
2023-05-16T09:33:47.959Z,2.51
2023-05-16T09:36:47.960Z,2.05
2023-05-16T09:39:47.989Z,1.83
2023-05-16T09:42:47.920Z,1.56
2023-05-16T09:45:47.957Z,1.63
2023-05-16T09:48:47.981Z,2.03
2023-05-16T09:51:47.991Z,2.19
2023-05-16T09:54:47.986Z,2.1
2023-05-16T09:57:47.917Z,1.71
2023-05-16T10:00:47.994Z,1.97
2023-05-16T10:03:48.082Z,2.26
2023-05-16T10:06:47.920Z,2.07
2023-05-16T10:09:48.006Z,2.49
2023-05-16T10:12:47.962Z,2.41
2023-05-16T10:15:47.971Z,2.17
2023-05-16T10:18:48.027Z,2.5
2023-05-16T10:21:47.938Z,2.76
2023-05-16T10:24:48.037Z,2.49
2023-05-16T10:27:48.010Z,2.38
2023-05-16T10:30:47.985Z,1.83
2023-05-16T10:33:48.032Z,1.98
2023-05-16T10:36:48.043Z,1.73
2023-05-16T10:39:47.997Z,3.06
2023-05-16T10:42:48.046Z,2.85
2023-05-16T10:45:48.004Z,1.68
2023-05-16T10:48:49.611Z,2.01
2023-05-16T10:51:47.962Z,2.12
2023-05-16T10:54:48.032Z,2.28
2023-05-16T10:57:48.006Z,1.89
2023-05-16T11:00:48.213Z,1.73
2023-05-16T11:03:48.080Z,1.95
2023-05-16T11:06:48.042Z,2.23
2023-05-16T11:09:48.033Z,1.99
2023-05-16T11:12:47.991Z,2.04
2023-05-16T11:15:48.028Z,2.03
2023-05-16T11:18:48.065Z,1.97
2023-05-16T11:21:48.053Z,1.66
2023-05-16T11:24:48.071Z,1.49
2023-05-16T11:27:48.106Z,2.73
2023-05-16T11:30:48.048Z,2.51
2023-05-16T11:33:48.065Z,2.07
2023-05-16T11:36:48.080Z,2.26
2023-05-16T11:39:48.039Z,2.25
2023-05-16T11:42:48.068Z,2.12
2023-05-16T11:45:48.037Z,1.55
2023-05-16T11:48:48.176Z,1.79
2023-05-16T11:51:48.067Z,1.38
2023-05-16T11:54:48.061Z,1.71
2023-05-16T11:57:48.105Z,1.94
2023-05-16T12:00:48.033Z,1.91
2023-05-16T12:03:48.219Z,2.38
2023-05-16T12:06:48.078Z,2.42
2023-05-16T12:09:48.090Z,2.42
2023-05-16T12:12:48.119Z,2
2023-05-16T12:15:48.055Z,2.21
2023-05-16T12:18:50.517Z,2.09
2023-05-16T12:21:48.070Z,2.48
2023-05-16T12:24:48.128Z,2.34
2023-05-16T12:27:48.118Z,2.46
2023-05-16T12:30:48.248Z,2.27
2023-05-16T12:33:48.116Z,3.09
2023-05-16T12:36:48.126Z,2.59
2023-05-16T12:39:48.137Z,2.19
2023-05-16T12:42:48.126Z,2.61
2023-05-16T12:45:48.142Z,2.63
2023-05-16T12:48:48.109Z,3.01
2023-05-16T12:51:48.197Z,2.6
2023-05-16T12:54:48.128Z,2.64
2023-05-16T12:57:48.257Z,2.71
2023-05-16T13:00:48.115Z,2.39
2023-05-16T13:03:48.269Z,2.05
2023-05-16T13:06:57.155Z,2.04
2023-05-16T13:09:48.172Z,2.39
2023-05-16T13:12:48.102Z,2.34
2023-05-16T13:15:48.182Z,1.92
2023-05-16T13:18:48.184Z,1.98
2023-05-16T13:21:48.211Z,2.3
2023-05-16T13:24:48.134Z,2.24
2023-05-16T13:27:48.126Z,2.47
2023-05-16T13:30:48.140Z,3.06
2023-05-16T13:33:48.156Z,2.7
2023-05-16T13:36:53.576Z,2.34
2023-05-16T13:39:50.743Z,2.78
2023-05-16T13:42:48.237Z,2.32
2023-05-16T13:45:48.133Z,1.96
2023-05-16T13:48:48.174Z,2.08
2023-05-16T13:51:48.205Z,2.41
2023-05-16T13:54:48.194Z,2.27
2023-05-16T13:57:48.186Z,2.02
2023-05-16T14:00:48.396Z,2.92
2023-05-16T14:03:48.500Z,2.91
2023-05-16T14:06:48.258Z,2.52
2023-05-16T14:09:48.208Z,1.74
2023-05-16T14:12:48.180Z,2.56
2023-05-16T14:15:48.174Z,2.33
2023-05-16T14:18:48.248Z,2.81
2023-05-16T14:21:48.180Z,2.55
2023-05-16T14:24:48.244Z,2.24
2023-05-16T14:27:48.199Z,2.34
2023-05-16T14:30:48.253Z,3.16
2023-05-16T14:33:48.200Z,2.93
2023-05-16T14:36:48.260Z,2.31
2023-05-16T14:39:48.365Z,2.23
2023-05-16T14:42:48.388Z,2.68
2023-05-16T14:45:48.517Z,2.33
2023-05-16T14:48:48.220Z,2.86
2023-05-16T14:51:48.181Z,2.09
2023-05-16T14:54:48.352Z,2.23
2023-05-16T14:57:48.999Z,1.92
2023-05-16T15:00:48.227Z,2.16
2023-05-16T15:03:55.082Z,2.28
2023-05-16T15:06:48.249Z,2.78
2023-05-16T15:09:48.250Z,2.49
2023-05-16T15:12:48.241Z,2.09
2023-05-16T15:15:48.278Z,2.13
2023-05-16T15:18:48.319Z,2.49
2023-05-16T15:21:48.444Z,2.23
2023-05-16T15:24:48.376Z,1.9
2023-05-16T15:27:48.563Z,3.24
2023-05-16T15:30:48.292Z,3.16
2023-05-16T15:33:48.675Z,2.94
2023-05-16T15:36:48.329Z,3.07
2023-05-16T15:39:48.291Z,2.83
2023-05-16T15:42:48.320Z,2.45
2023-05-16T15:45:48.321Z,2.84
2023-05-16T15:48:48.264Z,2.57
2023-05-16T15:51:48.268Z,2.65
2023-05-16T15:54:48.314Z,3.33
2023-05-16T15:57:48.331Z,2.87
2023-05-16T16:00:48.340Z,2.45
2023-05-16T16:03:48.475Z,2.05
2023-05-16T16:06:48.253Z,2.89
2023-05-16T16:09:48.331Z,2.83
2023-05-16T16:12:48.274Z,2.4
2023-05-16T16:15:48.312Z,3.25
2023-05-16T16:18:48.342Z,3.22
2023-05-16T16:21:48.321Z,2.43
2023-05-16T16:24:48.348Z,2.44
2023-05-16T16:27:48.355Z,2.42
2023-05-16T16:30:48.412Z,2.54
2023-05-16T16:33:48.313Z,2.95
2023-05-16T16:36:48.338Z,2.12
2023-05-16T16:39:48.320Z,1.75
2023-05-16T16:42:48.394Z,2.36
2023-05-16T16:45:48.360Z,3.24
2023-05-16T16:48:48.365Z,2.69
2023-05-16T16:51:48.343Z,2.23
2023-05-16T16:54:48.349Z,2.21
2023-05-16T16:57:48.322Z,1.86
2023-05-16T17:00:48.427Z,2.11
2023-05-16T17:03:48.307Z,1.81
2023-05-16T17:06:48.725Z,2.13
2023-05-16T17:09:48.337Z,1.95
2023-05-16T17:12:48.318Z,2.12
2023-05-16T17:15:48.395Z,1.68
2023-05-16T17:18:48.372Z,1.72
2023-05-16T17:21:48.334Z,2.14
2023-05-16T17:24:48.416Z,1.95
2023-05-16T17:27:48.336Z,2.13
2023-05-16T17:30:48.369Z,1.97
2023-05-16T17:33:48.361Z,2.25
2023-05-16T17:36:48.381Z,1.84
2023-05-16T17:39:48.378Z,2.16
2023-05-16T17:42:48.336Z,2.32
2023-05-16T17:45:48.458Z,2.18
2023-05-16T17:48:48.458Z,1.63
2023-05-16T17:51:48.400Z,1.47
2023-05-16T17:54:48.369Z,1.99
2023-05-16T17:57:48.334Z,2.3
2023-05-16T18:00:48.390Z,1.11
2023-05-16T18:03:48.449Z,1.75
2023-05-16T18:06:48.387Z,1.69
2023-05-16T18:09:48.373Z,1.93
2023-05-16T18:12:48.428Z,2.11
2023-05-16T18:15:48.489Z,2.43
2023-05-16T18:18:48.494Z,1.83
2023-05-16T18:21:48.428Z,1.64
2023-05-16T18:24:48.433Z,2.03
2023-05-16T18:27:48.472Z,1.79
2023-05-16T18:30:48.430Z,1.35
2023-05-16T18:33:48.467Z,1.66
2023-05-16T18:36:48.453Z,1.49
2023-05-16T18:39:48.406Z,1.5
2023-05-16T18:42:48.431Z,1.61
2023-05-16T18:45:48.411Z,1.62
2023-05-16T18:48:48.522Z,1.74
2023-05-16T18:51:48.570Z,1.68
2023-05-16T18:54:48.430Z,1.26
2023-05-16T18:57:48.481Z,1.54
2023-05-16T19:00:48.420Z,1.21
2023-05-16T19:03:48.618Z,1.06
2023-05-16T19:06:48.433Z,1.14
2023-05-16T19:09:48.412Z,1.18
2023-05-16T19:12:48.435Z,1.04
2023-05-16T19:15:48.434Z,0.84
2023-05-16T19:18:48.506Z,0.63
2023-05-16T19:21:48.485Z,0.89
2023-05-16T19:24:48.482Z,0.96
2023-05-16T19:27:48.459Z,1.17
2023-05-16T19:30:48.484Z,1.11
2023-05-16T19:33:48.488Z,1.1
2023-05-16T19:36:48.533Z,1.08
2023-05-16T19:39:48.480Z,1.24
2023-05-16T19:42:48.513Z,1.16
2023-05-16T19:45:48.471Z,1.39
2023-05-16T19:48:48.718Z,1.26
2023-05-16T19:51:48.540Z,1.1
2023-05-16T19:54:48.440Z,1.11
2023-05-16T19:57:48.524Z,1
2023-05-16T20:00:48.497Z,1.02
2023-05-16T20:03:48.541Z,1.07
2023-05-16T20:06:48.481Z,0.8
2023-05-16T20:09:48.491Z,0.85
2023-05-16T20:12:48.575Z,1.04
2023-05-16T20:15:48.509Z,0.93
2023-05-16T20:18:48.591Z,0.91
2023-05-16T20:21:48.618Z,0.85
2023-05-16T20:24:48.616Z,0.81
2023-05-16T20:27:48.569Z,0.91
2023-05-16T20:30:48.470Z,0.74
2023-05-16T20:33:48.577Z,0.66
2023-05-16T20:36:48.805Z,0.69
2023-05-16T20:39:48.553Z,0.47
2023-05-16T20:42:48.617Z,0.58
2023-05-16T20:45:48.500Z,0.66
2023-05-16T20:48:48.612Z,0.69
2023-05-16T20:51:48.626Z,0.61
2023-05-16T20:54:48.597Z,0.56
2023-05-16T20:57:48.548Z,0.73
2023-05-16T21:00:48.517Z,0.8
2023-05-16T21:03:48.570Z,0.83
2023-05-16T21:06:48.548Z,0.73
2023-05-16T21:09:48.543Z,0.73
2023-05-16T21:12:48.586Z,0.71
2023-05-16T21:15:48.565Z,0.81
2023-05-16T21:18:48.744Z,0.62
2023-05-16T21:21:48.586Z,0.65
2023-05-16T21:24:48.618Z,0.64
2023-05-16T21:27:48.575Z,0.88
2023-05-16T21:30:48.603Z,0.57
2023-05-16T21:33:48.640Z,0.84
2023-05-16T21:36:48.641Z,0.73
2023-05-16T21:39:48.597Z,0.89
2023-05-16T21:42:48.561Z,0.76
2023-05-16T21:45:48.680Z,0.87
2023-05-16T21:48:48.698Z,0.64
2023-05-16T21:51:48.602Z,0.76
2023-05-16T21:54:48.652Z,0.6
2023-05-16T21:57:48.556Z,0.64
2023-05-16T22:00:48.605Z,0.53
2023-05-16T22:03:48.643Z,0.8
2023-05-16T22:06:48.632Z,0.67
2023-05-16T22:09:48.635Z,0.85
2023-05-16T22:12:48.616Z,0.74
2023-05-16T22:16:03.155Z,0.57
2023-05-16T22:18:48.702Z,0.59
2023-05-16T22:21:48.667Z,0.57
2023-05-16T22:24:48.679Z,0.51
2023-05-16T22:27:48.634Z,0.6
2023-05-16T22:30:48.656Z,0.51
2023-05-16T22:33:48.741Z,0.61
2023-05-16T22:36:48.673Z,0.57
2023-05-16T22:39:48.680Z,0.55
2023-05-16T22:42:48.642Z,0.77
2023-05-16T22:45:48.696Z,0.76
2023-05-16T22:48:48.750Z,0.53
2023-05-16T22:51:48.680Z,0.53
2023-05-16T22:54:48.662Z,0.55
2023-05-16T22:57:48.683Z,0.76
2023-05-16T23:00:48.652Z,0.61
2023-05-16T23:03:48.675Z,0.78
2023-05-16T23:06:48.640Z,0.81
2023-05-16T23:09:48.668Z,0.86
2023-05-16T23:12:48.698Z,0.76
2023-05-16T23:15:48.706Z,0.72
2023-05-16T23:18:48.733Z,0.87
2023-05-16T23:21:48.647Z,0.71
2023-05-16T23:24:48.708Z,0.56
2023-05-16T23:27:48.655Z,0.8
2023-05-16T23:30:48.733Z,0.54
2023-05-16T23:33:48.714Z,0.57
2023-05-16T23:36:48.712Z,0.51
2023-05-16T23:39:48.690Z,0.41
2023-05-16T23:42:48.641Z,0.49
2023-05-16T23:45:48.674Z,0.44
2023-05-16T23:48:48.810Z,0.54
2023-05-16T23:51:57.202Z,0.65
2023-05-16T23:54:48.740Z,0.52
2023-05-16T23:57:48.743Z,0.45
